地図

経路データ

SID SEASON NUMBER BASIN SUBBASIN NAME ISO_TIME NATURE LAT LON WMO_WIND WMO_PRES WMO_AGENCY TRACK_TYPE DIST2LAND LANDFALL IFLAG USA_AGENCY USA_ATCF_ID USA_LAT USA_LON USA_RECORD USA_STATUS USA_WIND USA_PRES USA_SSHS USA_R34_NE USA_R34_SE USA_R34_SW USA_R34_NW USA_R50_NE USA_R50_SE USA_R50_SW USA_R50_NW USA_R64_NE USA_R64_SE USA_R64_SW USA_R64_NW USA_POCI USA_ROCI USA_RMW USA_EYE TOKYO_LAT TOKYO_LON TOKYO_GRADE TOKYO_WIND TOKYO_PRES TOKYO_R50_DIR TOKYO_R50_LONG TOKYO_R50_SHORT TOKYO_R30_DIR TOKYO_R30_LONG TOKYO_R30_SHORT TOKYO_LAND CMA_LAT CMA_LON CMA_CAT CMA_WIND CMA_PRES HKO_LAT HKO_LON HKO_CAT HKO_WIND HKO_PRES NEWDELHI_LAT NEWDELHI_LON NEWDELHI_GRADE NEWDELHI_WIND NEWDELHI_PRES NEWDELHI_CI NEWDELHI_DP NEWDELHI_POCI REUNION_LAT REUNION_LON REUNION_TYPE REUNION_WIND REUNION_PRES REUNION_TNUM REUNION_CI REUNION_RMW REUNION_R34_NE REUNION_R34_SE REUNION_R34_SW REUNION_R34_NW REUNION_R50_NE REUNION_R50_SE REUNION_R50_SW REUNION_R50_NW REUNION_R64_NE REUNION_R64_SE REUNION_R64_SW REUNION_R64_NW BOM_LAT BOM_LON BOM_TYPE BOM_WIND BOM_PRES BOM_TNUM BOM_CI BOM_RMW BOM_R34_NE BOM_R34_SE BOM_R34_SW BOM_R34_NW BOM_R50_NE BOM_R50_SE BOM_R50_SW BOM_R50_NW BOM_R64_NE BOM_R64_SE BOM_R64_SW BOM_R64_NW BOM_ROCI BOM_POCI BOM_EYE BOM_POS_METHOD BOM_PRES_METHOD NADI_LAT NADI_LON NADI_CAT NADI_WIND NADI_PRES WELLINGTON_LAT WELLINGTON_LON WELLINGTON_WIND WELLINGTON_PRES DS824_LAT DS824_LON DS824_STAGE DS824_WIND DS824_PRES TD9636_LAT TD9636_LON TD9636_STAGE TD9636_WIND TD9636_PRES TD9635_LAT TD9635_LON TD9635_WIND TD9635_PRES TD9635_ROCI NEUMANN_LAT NEUMANN_LON NEUMANN_CLASS NEUMANN_WIND NEUMANN_PRES MLC_LAT MLC_LON MLC_CLASS MLC_WIND MLC_PRES USA_GUST BOM_GUST BOM_GUST_PER REUNION_GUST REUNION_GUST_PER USA_SEAHGT USA_SEARAD_NE USA_SEARAD_SE USA_SEARAD_SW USA_SEARAD_NW STORM_SPEED STORM_DIR
1905021S14070 1905 5 SI MM NOT_NAMED 1905-01-21 06:00:00 NR -14.3000 69.7000 main 1429 1396 __________O___ -1 -14.3000 69.7000 7 8 247
1905021S14070 1905 5 SI MM NOT_NAMED 1905-01-21 09:00:00 NR -14.4536 69.3350 main 1381 1347 __________P___ -1 -14.4536 69.3350 7 8 247
1905021S14070 1905 5 SI MM NOT_NAMED 1905-01-21 12:00:00 NR -14.6056 68.9658 main 1347 1304 __________P___ -1 -14.6056 68.9658 7 8 247
1905021S14070 1905 5 SI MM NOT_NAMED 1905-01-21 15:00:00 NR -14.7547 68.5887 main 1299 1255 __________P___ -1 -14.7547 68.5887 7 8 248
1905021S14070 1905 5 SI MM NOT_NAMED 1905-01-21 18:00:00 NR -14.9000 68.2000 main 1255 1213 __________O___ -1 -14.9000 68.2000 7 8 249
1905021S14070 1905 5 SI MM NOT_NAMED 1905-01-21 21:00:00 NR -15.0430 67.7952 main 1213 1164 __________P___ -1 -15.0430 67.7952 7 9 250
1905021S14070 1905 5 SI MM NOT_NAMED 1905-01-22 00:00:00 NR -15.1968 67.3663 main 1164 1106 __________P___ -1 -15.1968 67.3663 7 9 249
1905021S14070 1905 5 SI MM NOT_NAMED 1905-01-22 03:00:00 NR -15.3772 66.9043 main 1106 1049 __________P___ -1 -15.3772 66.9043 7 10 247
1905021S14070 1905 5 SI MM NOT_NAMED 1905-01-22 06:00:00 NR -15.6000 66.4000 main 1049 991 __________O___ -1 -15.6000 66.4000 7 11 244
1905021S14070 1905 5 SI MM NOT_NAMED 1905-01-22 09:00:00 NR -15.8657 65.8429 main 976 913 __________P___ -1 -15.8657 65.8429 7 13 243
1905021S14070 1905 5 SI MM NOT_NAMED 1905-01-22 12:00:00 NR -16.1751 65.2445 main 904 841 __________P___ -1 -16.1751 65.2445 7 13 241
1905021S14070 1905 5 SI MM NOT_NAMED 1905-01-22 15:00:00 NR -16.5219 64.6239 main 832 754 __________P___ -1 -16.5219 64.6239 7 14 239
1905021S14070 1905 5 SI MM NOT_NAMED 1905-01-22 18:00:00 NR -16.9000 64.0000 main 754 677 __________O___ -1 -16.9000 64.0000 7 14 238
1905021S14070 1905 5 SI MM NOT_NAMED 1905-01-22 21:00:00 NR -17.2883 63.3636 main 677 599 __________P___ -1 -17.2883 63.3636 7 15 236
1905021S14070 1905 5 SI MM NOT_NAMED 1905-01-23 00:00:00 NR -17.7054 62.7328 main 590 523 __________P___ -1 -17.7054 62.7328 7 15 234
1905021S14070 1905 5 SI MM NOT_NAMED 1905-01-23 03:00:00 NR -18.1447 62.1355 main 513 441 __________P___ -1 -18.1447 62.1355 7 14 230
1905021S14070 1905 5 SI MM NOT_NAMED 1905-01-23 06:00:00 NR -18.6000 61.6000 main 441 374 __________O___ -1 -18.6000 61.6000 7 13 227
1905021S14070 1905 5 SI MM NOT_NAMED 1905-01-23 09:00:00 NR -19.0356 61.1231 main 374 316 __________P___ -1 -19.0356 61.1231 7 12 223
1905021S14070 1905 5 SI MM NOT_NAMED 1905-01-23 12:00:00 NR -19.4894 60.7143 main 316 275 __________P___ -1 -19.4894 60.7143 7 12 217
1905021S14070 1905 5 SI MM NOT_NAMED 1905-01-23 15:00:00 NR -19.9734 60.3733 main 273 240 __________P___ -1 -19.9734 60.3733 7 12 210
1905021S14070 1905 5 SI MM NOT_NAMED 1905-01-23 18:00:00 NR -20.5000 60.1000 main 240 228 __________O___ -1 -20.5000 60.1000 7 12 202
1905021S14070 1905 5 SI MM NOT_NAMED 1905-01-23 21:00:00 NR -21.0770 59.8913 main 236 231 __________P___ -1 -21.0770 59.8913 7 13 196
1905021S14070 1905 5 SI MM NOT_NAMED 1905-01-24 00:00:00 NR -21.6951 59.7330 main 247 247 __________P___ -1 -21.6951 59.7330 7 13 192
1905021S14070 1905 5 SI MM NOT_NAMED 1905-01-24 03:00:00 NR -22.3408 59.6083 main 281 281 __________P___ -1 -22.3408 59.6083 7 13 189
1905021S14070 1905 5 SI MM NOT_NAMED 1905-01-24 06:00:00 NR -23.0000 59.5000 main 335 __________O___ -1 -23.0000 59.5000 7 13 189

IBTrACS Databaseについて

本データベースは、米国NOAAが公開する1842年以降の世界の熱帯低気圧のベストトラックデータアーカイブInternational Best Track Archive for Climate Stewardship (IBTrACS)を、ウェブで閲覧しやすい形式に変換したものです。

最終更新日:2021-11-26